Time;durP1;ratioP1;P1;durP2;ratioP2;P2;SDS_P1;SDS_P2;PMS_P1;PMS_P2;Temp;Humidity;BMP_temperature;BMP_pressure;BME280_temperature;BME280_humidity;BME280_pressure;Samples;Min_cycle;Max_cycle;Signal;HPM_P1;HPM_P2
2021/11/14 00:01:55;;;;;;;0.10;0.10;;;;;;;;;;4166535;28;20061;-38
2021/11/14 00:03:56;;;;;;;0.70;0.20;;;;;;;;;;4166595;28;20084;-32
2021/11/14 00:05:58;;;;;;;0.20;0.20;;;;;;;;;;4166449;28;20108;-32
2021/11/14 00:07:59;;;;;;;0.20;0.20;;;;;;;;;;4165952;28;20057;-32
2021/11/14 00:10:00;;;;;;;0.10;0.10;;;;;;;;;;4166340;28;20053;-32
2021/11/14 00:12:02;;;;;;;0.20;0.20;;;;;;;;;;4166278;28;20057;-33
2021/11/14 00:14:03;;;;;;;0.20;0.20;;;;;;;;;;4172180;28;20114;-32
2021/11/14 00:16:07;;;;;;;0.22;0.22;;;;;;;;;;4182663;28;20459;-32
2021/11/14 00:18:08;;;;;;;0.15;0.10;;;;;;;;;;4164843;28;20056;-33
2021/11/14 00:20:11;;;;;;;0.20;0.20;;;;;;;;;;4165064;28;20139;-34
2021/11/14 00:22:12;;;;;;;0.28;0.20;;;;;;;;;;4182740;28;20430;-32
2021/11/14 00:24:14;;;;;;;0.10;0.10;;;;;;;;;;4182237;28;20455;-35
2021/11/14 00:26:16;;;;;;;0.17;0.10;;;;;;;;;;4182398;28;20114;-34
2021/11/14 00:28:17;;;;;;;0.35;0.20;;;;;;;;;;4182472;28;20059;-33
2021/11/14 00:30:23;;;;;;;0.13;0.13;;;;;;;;;;4164942;28;20521;-33
2021/11/14 00:32:25;;;;;;;0.20;0.10;;;;;;;;;;4182513;28;20106;-33
2021/11/14 00:34:26;;;;;;;0.30;0.30;;;;;;;;;;4182522;28;20052;-34
2021/11/14 00:36:29;;;;;;;0.10;0.10;;;;;;;;;;4182619;28;20061;-34
2021/11/14 00:38:30;;;;;;;0.10;0.10;;;;;;;;;;4181805;28;20053;-32
2021/11/14 00:40:33;;;;;;;0.10;0.10;;;;;;;;;;4182680;28;20053;-32
2021/11/14 00:42:34;;;;;;;0.20;0.20;;;;;;;;;;4182247;28;20131;-38
2021/11/14 00:44:35;;;;;;;0.20;0.20;;;;;;;;;;4182278;28;20110;-32
2021/11/14 00:46:39;;;;;;;0.20;0.10;;;;;;;;;;4182355;28;20053;-34
2021/11/14 00:48:42;;;;;;;0.20;0.13;;;;;;;;;;4182305;28;20061;-34
2021/11/14 00:50:44;;;;;;;0.28;0.10;;;;;;;;;;4182222;28;20119;-32
2021/11/14 00:52:45;;;;;;;0.20;0.10;;;;;;;;;;4181580;28;20056;-32
2021/11/14 00:54:46;;;;;;;0.20;0.20;;;;;;;;;;4182340;28;20068;-33
2021/11/14 00:56:47;;;;;;;0.20;0.10;;;;;;;;;;4182209;28;20053;-33
2021/11/14 00:58:49;;;;;;;0.10;0.10;;;;;;;;;;4181961;28;20052;-34
2021/11/14 01:00:50;;;;;;;0.15;0.10;;;;;;;;;;4182352;28;20111;-33
2021/11/14 01:02:52;;;;;;;0.10;0.10;;;;;;;;;;4181906;28;20060;-32
2021/11/14 01:04:53;;;;;;;0.20;0.20;;;;;;;;;;4182032;28;20064;-36
2021/11/14 01:06:54;;;;;;;0.10;0.10;;;;;;;;;;4182096;28;20048;-33
2021/11/14 01:08:55;;;;;;;0.15;0.10;;;;;;;;;;4180310;28;20056;-35
2021/11/14 01:10:59;;;;;;;0.10;0.10;;;;;;;;;;4177957;28;20455;-33
2021/11/14 01:13:00;;;;;;;0.10;0.10;;;;;;;;;;4182128;28;20049;-32
2021/11/14 01:15:02;;;;;;;0.17;0.17;;;;;;;;;;4182099;28;20053;-33
2021/11/14 01:17:03;;;;;;;0.20;0.20;;;;;;;;;;4181894;28;20481;-32
2021/11/14 01:19:05;;;;;;;0.20;0.20;;;;;;;;;;4181963;28;20061;-33
2021/11/14 01:21:08;;;;;;;0.13;0.13;;;;;;;;;;4186546;28;20061;-32
2021/11/14 01:23:12;;;;;;;0.20;0.20;;;;;;;;;;4197757;28;20057;-35
2021/11/14 01:25:15;;;;;;;0.20;0.20;;;;;;;;;;4197719;28;20068;-32
2021/11/14 01:27:17;;;;;;;0.30;0.30;;;;;;;;;;4197978;28;20088;-33
2021/11/14 01:29:18;;;;;;;0.10;0.10;;;;;;;;;;4198099;28;20056;-34
2021/11/14 01:31:19;;;;;;;0.20;0.20;;;;;;;;;;4198123;28;20102;-32
2021/11/14 01:33:23;;;;;;;0.38;0.20;;;;;;;;;;4197949;28;20477;-32
2021/11/14 01:35:25;;;;;;;0.20;0.20;;;;;;;;;;4198237;28;20129;-32
2021/11/14 01:37:26;;;;;;;0.13;0.13;;;;;;;;;;4180417;28;20104;-36
2021/11/14 01:39:27;;;;;;;0.45;0.20;;;;;;;;;;4197784;28;20079;-34
2021/11/14 01:41:29;;;;;;;0.15;0.15;;;;;;;;;;4197850;28;20404;-35
2021/11/14 01:43:33;;;;;;;0.10;0.10;;;;;;;;;;4197828;28;20110;-32
2021/11/14 01:45:36;;;;;;;0.20;0.20;;;;;;;;;;4196760;28;20057;-32
2021/11/14 01:47:37;;;;;;;0.10;0.10;;;;;;;;;;4197694;28;20056;-32
2021/11/14 01:49:38;;;;;;;0.10;0.10;;;;;;;;;;4196873;28;20056;-32
2021/11/14 01:51:39;;;;;;;0.10;0.10;;;;;;;;;;4197601;28;20377;-33
2021/11/14 01:53:41;;;;;;;0.20;0.10;;;;;;;;;;4191874;28;20061;-35
2021/11/14 01:55:43;;;;;;;0.10;0.10;;;;;;;;;;4180195;28;20065;-35
2021/11/14 01:57:45;;;;;;;0.20;0.20;;;;;;;;;;4180986;28;20061;-34
2021/11/14 01:59:47;;;;;;;0.20;0.20;;;;;;;;;;4181450;28;20103;-35
2021/11/14 02:01:48;;;;;;;0.10;0.10;;;;;;;;;;4181180;28;20055;-32
2021/11/14 02:03:55;;;;;;;0.17;0.17;;;;;;;;;;4181256;28;20049;-32
2021/11/14 02:05:59;;;;;;;0.10;0.10;;;;;;;;;;4164328;28;20517;-32
2021/11/14 02:08:03;;;;;;;0.15;0.15;;;;;;;;;;4164124;28;20486;-32
2021/11/14 02:10:08;;;;;;;0.20;0.20;;;;;;;;;;4163271;28;20057;-33
2021/11/14 02:12:10;;;;;;;0.20;0.10;;;;;;;;;;4164468;28;20379;-34
2021/11/14 02:14:11;;;;;;;0.20;0.20;;;;;;;;;;4164710;28;20053;-34
2021/11/14 02:16:13;;;;;;;0.10;0.10;;;;;;;;;;4164477;28;20121;-32
2021/11/14 02:18:15;;;;;;;0.38;0.28;;;;;;;;;;4164310;28;20453;-34
2021/11/14 02:20:17;;;;;;;0.38;0.20;;;;;;;;;;4176189;28;20053;-35
2021/11/14 02:22:19;;;;;;;0.10;0.10;;;;;;;;;;4180758;28;20474;-32
2021/11/14 02:24:21;;;;;;;0.50;0.20;;;;;;;;;;4179284;28;20057;-34
2021/11/14 02:26:23;;;;;;;0.10;0.10;;;;;;;;;;4180795;28;20102;-32
2021/11/14 02:28:25;;;;;;;0.10;0.10;;;;;;;;;;4180722;28;20122;-33
2021/11/14 02:30:27;;;;;;;0.40;0.20;;;;;;;;;;4180884;28;20056;-32
2021/11/14 02:32:28;;;;;;;0.13;0.10;;;;;;;;;;4180552;28;20061;-37
2021/11/14 02:34:29;;;;;;;0.40;0.30;;;;;;;;;;4180631;28;20079;-32
2021/11/14 02:36:30;;;;;;;0.10;0.10;;;;;;;;;;4162359;28;20053;-34
2021/11/14 02:38:32;;;;;;;0.10;0.10;;;;;;;;;;4179899;28;20057;-33
2021/11/14 02:40:33;;;;;;;0.40;0.22;;;;;;;;;;4180708;28;20061;-32
2021/11/14 02:42:36;;;;;;;0.10;0.10;;;;;;;;;;4180526;28;20485;-33
2021/11/14 02:44:37;;;;;;;0.10;0.10;;;;;;;;;;4180561;28;20107;-32
2021/11/14 02:46:38;;;;;;;0.10;0.10;;;;;;;;;;4180354;28;20432;-35
2021/11/14 02:48:40;;;;;;;0.17;0.10;;;;;;;;;;4162576;28;20080;-32
2021/11/14 02:50:43;;;;;;;0.10;0.10;;;;;;;;;;4180478;28;20057;-33
2021/11/14 02:52:44;;;;;;;0.40;0.15;;;;;;;;;;4179984;28;20137;-32
2021/11/14 02:54:45;;;;;;;0.20;0.10;;;;;;;;;;4180536;28;20447;-32
2021/11/14 02:56:47;;;;;;;0.10;0.10;;;;;;;;;;4180451;28;20095;-32
2021/11/14 02:58:48;;;;;;;0.10;0.10;;;;;;;;;;4179143;28;20060;-35
2021/11/14 03:01:02;;;;;;;0.20;0.20;;;;;;;;;;4180768;28;20099;-36
2021/11/14 03:03:03;;;;;;;0.13;0.13;;;;;;;;;;4180279;28;20111;-33
2021/11/14 03:05:09;;;;;;;0.52;0.30;;;;;;;;;;4180355;28;20064;-33
2021/11/14 03:07:10;;;;;;;0.52;0.20;;;;;;;;;;4180362;28;20053;-34
2021/11/14 03:09:11;;;;;;;0.30;0.20;;;;;;;;;;4180076;28;20076;-34
2021/11/14 03:11:13;;;;;;;0.10;0.10;;;;;;;;;;4162714;28;20167;-33
2021/11/14 03:13:16;;;;;;;0.10;0.10;;;;;;;;;;4180177;28;20057;-34
2021/11/14 03:15:17;;;;;;;0.90;0.20;;;;;;;;;;4180337;28;20057;-33
2021/11/14 03:17:19;;;;;;;0.10;0.10;;;;;;;;;;4180123;28;20049;-32
2021/11/14 03:19:20;;;;;;;0.10;0.10;;;;;;;;;;4180208;28;20057;-32
2021/11/14 03:21:22;;;;;;;0.10;0.10;;;;;;;;;;4180174;28;20057;-34
2021/11/14 03:23:25;;;;;;;0.10;0.10;;;;;;;;;;4179824;28;20064;-32
2021/11/14 03:25:28;;;;;;;0.20;0.10;;;;;;;;;;4162613;28;20383;-35
2021/11/14 03:27:29;;;;;;;0.20;0.10;;;;;;;;;;4180101;28;20060;-33
2021/11/14 03:29:30;;;;;;;0.45;0.20;;;;;;;;;;4180202;28;20378;-35
2021/11/14 03:31:31;;;;;;;0.20;0.15;;;;;;;;;;4180095;28;20057;-36
2021/11/14 03:33:33;;;;;;;0.20;0.20;;;;;;;;;;4178827;28;20102;-36
2021/11/14 03:35:38;;;;;;;0.30;0.20;;;;;;;;;;4180132;28;20548;-36
2021/11/14 03:37:39;;;;;;;0.43;0.20;;;;;;;;;;4179772;28;20053;-32
2021/11/14 03:39:41;;;;;;;0.30;0.20;;;;;;;;;;4180137;28;20053;-36
2021/11/14 03:41:42;;;;;;;0.17;0.10;;;;;;;;;;4180508;28;20102;-32
2021/11/14 03:43:44;;;;;;;0.10;0.10;;;;;;;;;;4180601;28;20057;-34
2021/11/14 03:45:45;;;;;;;0.10;0.10;;;;;;;;;;4180396;28;20049;-33
2021/11/14 03:47:46;;;;;;;0.20;0.20;;;;;;;;;;4180042;28;20489;-36
2021/11/14 03:49:48;;;;;;;0.22;0.20;;;;;;;;;;4183327;28;20453;-32
2021/11/14 03:51:49;;;;;;;0.10;0.10;;;;;;;;;;4183380;28;20053;-33
2021/11/14 03:53:51;;;;;;;0.20;0.20;;;;;;;;;;4182736;28;20511;-34
2021/11/14 03:55:53;;;;;;;0.10;0.10;;;;;;;;;;4183325;28;20049;-32
2021/11/14 03:57:55;;;;;;;0.17;0.17;;;;;;;;;;4183061;28;20076;-33
2021/11/14 03:59:56;;;;;;;0.10;0.10;;;;;;;;;;4183170;28;20416;-33
2021/11/14 04:01:58;;;;;;;0.10;0.10;;;;;;;;;;4183215;28;20056;-31
2021/11/14 04:03:59;;;;;;;0.40;0.10;;;;;;;;;;4197603;28;20063;-32
2021/11/14 04:06:00;;;;;;;0.17;0.10;;;;;;;;;;4199503;28;20053;-32
2021/11/14 04:08:07;;;;;;;0.55;0.10;;;;;;;;;;4198999;28;20052;-32
2021/11/14 04:10:09;;;;;;;0.10;0.10;;;;;;;;;;4199555;28;20057;-36
2021/11/14 04:12:10;;;;;;;0.10;0.10;;;;;;;;;;4199498;28;20114;-34
2021/11/14 04:14:11;;;;;;;0.10;0.10;;;;;;;;;;4199284;28;20484;-36
2021/11/14 04:16:12;;;;;;;0.20;0.20;;;;;;;;;;4199428;28;20060;-32
2021/11/14 04:18:14;;;;;;;0.20;0.20;;;;;;;;;;4199238;28;20110;-32
2021/11/14 04:20:15;;;;;;;0.20;0.20;;;;;;;;;;4199077;28;20561;-32
2021/11/14 04:22:16;;;;;;;0.10;0.10;;;;;;;;;;4199188;28;20056;-33
2021/11/14 04:24:19;;;;;;;0.10;0.10;;;;;;;;;;4199134;28;20063;-33
2021/11/14 04:26:20;;;;;;;0.20;0.10;;;;;;;;;;4199213;28;20048;-33
2021/11/14 04:28:21;;;;;;;0.10;0.10;;;;;;;;;;4199406;28;20061;-32
2021/11/14 04:30:22;;;;;;;0.10;0.10;;;;;;;;;;4199149;28;20451;-32
2021/11/14 04:32:23;;;;;;;0.10;0.10;;;;;;;;;;4199119;28;20060;-34
2021/11/14 04:34:25;;;;;;;0.10;0.10;;;;;;;;;;4198955;28;20060;-33
2021/11/14 04:36:26;;;;;;;0.20;0.20;;;;;;;;;;4199209;28;20056;-32
2021/11/14 04:38:27;;;;;;;0.10;0.10;;;;;;;;;;4198466;28;20052;-32
2021/11/14 04:40:32;;;;;;;0.15;0.13;;;;;;;;;;4198979;28;20377;-32
2021/11/14 04:42:33;;;;;;;0.10;0.10;;;;;;;;;;4198865;28;20060;-34
2021/11/14 04:44:36;;;;;;;0.10;0.10;;;;;;;;;;4198922;28;20082;-31
2021/11/14 04:46:37;;;;;;;0.55;0.10;;;;;;;;;;4198872;28;20044;-31
2021/11/14 04:48:38;;;;;;;0.05;0.05;;;;;;;;;;4198522;28;20057;-40
2021/11/14 04:50:39;;;;;;;0.10;0.10;;;;;;;;;;4198732;28;20063;-32
2021/11/14 04:52:41;;;;;;;0.13;0.13;;;;;;;;;;4198580;28;20052;-32
2021/11/14 04:54:42;;;;;;;0.10;0.10;;;;;;;;;;4199088;28;20059;-32
2021/11/14 04:56:43;;;;;;;0.00;0.00;;;;;;;;;;4198741;28;20060;-34
2021/11/14 04:58:45;;;;;;;0.30;0.20;;;;;;;;;;4195994;28;20071;-34
2021/11/14 05:00:50;;;;;;;0.10;0.10;;;;;;;;;;4180669;28;20059;-33
2021/11/14 05:02:54;;;;;;;0.22;0.22;;;;;;;;;;4164230;28;20054;-33
2021/11/14 05:04:55;;;;;;;0.30;0.20;;;;;;;;;;4181437;28;20057;-32
2021/11/14 05:06:56;;;;;;;0.57;0.20;;;;;;;;;;4180800;28;20448;-32
2021/11/14 05:08:58;;;;;;;0.22;0.10;;;;;;;;;;4163512;28;20053;-32
2021/11/14 05:10:59;;;;;;;0.25;0.10;;;;;;;;;;4164118;28;20115;-32
2021/11/14 05:13:01;;;;;;;0.10;0.10;;;;;;;;;;4181699;28;20481;-34
2021/11/14 05:15:03;;;;;;;0.10;0.10;;;;;;;;;;4181892;28;20064;-35
2021/11/14 05:17:04;;;;;;;0.10;0.10;;;;;;;;;;4163253;28;20410;-34
2021/11/14 05:19:05;;;;;;;0.00;0.00;;;;;;;;;;4164087;28;20390;-33
2021/11/14 05:21:07;;;;;;;0.10;0.10;;;;;;;;;;4163922;28;20088;-35
2021/11/14 05:23:13;;;;;;;0.00;0.00;;;;;;;;;;4181423;28;20057;-32
2021/11/14 05:25:14;;;;;;;0.10;0.10;;;;;;;;;;4181835;28;20430;-34
2021/11/14 05:27:16;;;;;;;0.30;0.10;;;;;;;;;;4163992;28;20077;-34
2021/11/14 05:29:17;;;;;;;0.10;0.10;;;;;;;;;;4181589;28;20053;-33
2021/11/14 05:31:18;;;;;;;0.13;0.10;;;;;;;;;;4181862;28;20099;-32
2021/11/14 05:33:19;;;;;;;0.15;0.10;;;;;;;;;;4181534;28;20489;-31
2021/11/14 05:35:20;;;;;;;0.10;0.10;;;;;;;;;;4181640;28;20086;-35
2021/11/14 05:37:21;;;;;;;0.10;0.10;;;;;;;;;;4181541;28;20057;-32
2021/11/14 05:39:22;;;;;;;0.03;0.03;;;;;;;;;;4180938;28;20103;-31
2021/11/14 05:41:24;;;;;;;0.22;0.10;;;;;;;;;;4163755;28;20057;-33
2021/11/14 05:43:25;;;;;;;0.10;0.10;;;;;;;;;;4181447;28;20065;-33
2021/11/14 05:45:26;;;;;;;0.10;0.10;;;;;;;;;;4181321;28;20060;-33
2021/11/14 05:47:28;;;;;;;0.20;0.20;;;;;;;;;;4163303;28;20414;-37
2021/11/14 05:49:29;;;;;;;0.10;0.10;;;;;;;;;;4181326;28;20060;-34
2021/11/14 05:51:30;;;;;;;0.10;0.10;;;;;;;;;;4181297;28;20106;-37
2021/11/14 05:53:32;;;;;;;0.10;0.10;;;;;;;;;;4179594;28;20587;-33
2021/11/14 05:55:33;;;;;;;0.20;0.10;;;;;;;;;;4181252;28;20061;-33
2021/11/14 05:59:56;;;;;;;0.10;0.10;;;;;;;;;;4163602;28;20053;-31
2021/11/14 06:02:02;;;;;;;0.10;0.10;;;;;;;;;;4181474;28;20053;-33
2021/11/14 06:04:53;;;;;;;0.10;0.10;;;;;;;;;;4181171;28;20058;-32
2021/11/14 06:06:25;;;;;;;0.10;0.10;;;;;;;;;;4170379;28;20057;-34
2021/11/14 06:08:26;;;;;;;0.10;0.10;;;;;;;;;;4180457;28;20119;-33
2021/11/14 06:10:27;;;;;;;0.20;0.10;;;;;;;;;;4180861;28;20056;-32
2021/11/14 06:12:28;;;;;;;0.17;0.17;;;;;;;;;;4162944;28;20057;-36
2021/11/14 06:14:30;;;;;;;0.20;0.20;;;;;;;;;;4181152;28;20057;-32
2021/11/14 06:16:31;;;;;;;0.10;0.10;;;;;;;;;;4181029;28;20079;-32
2021/11/14 06:18:32;;;;;;;0.10;0.10;;;;;;;;;;4180906;28;20110;-32
2021/11/14 06:20:33;;;;;;;0.10;0.10;;;;;;;;;;4180748;28;20497;-33
2021/11/14 06:22:34;;;;;;;0.20;0.10;;;;;;;;;;4180283;28;20111;-34
2021/11/14 06:24:35;;;;;;;0.20;0.10;;;;;;;;;;4180773;28;20057;-33
2021/11/14 06:26:36;;;;;;;0.10;0.10;;;;;;;;;;4180868;28;20053;-33
2021/11/14 06:28:37;;;;;;;0.35;0.15;;;;;;;;;;4180678;28;20099;-35
2021/11/14 06:30:39;;;;;;;0.10;0.10;;;;;;;;;;4180707;28;20448;-34
2021/11/14 06:32:40;;;;;;;0.10;0.10;;;;;;;;;;4180704;28;20179;-35
2021/11/14 06:34:41;;;;;;;0.25;0.10;;;;;;;;;;4180728;28;20483;-33
2021/11/14 06:36:42;;;;;;;0.20;0.10;;;;;;;;;;4180564;28;20048;-35
2021/11/14 06:38:43;;;;;;;0.10;0.10;;;;;;;;;;4180399;28;20106;-32
2021/11/14 06:40:44;;;;;;;0.13;0.10;;;;;;;;;;4162807;28;20517;-36
2021/11/14 06:42:45;;;;;;;0.10;0.10;;;;;;;;;;4180766;28;20075;-32
2021/11/14 06:44:46;;;;;;;0.10;0.10;;;;;;;;;;4162985;28;20126;-34
2021/11/14 06:46:47;;;;;;;0.10;0.10;;;;;;;;;;4180289;28;20055;-32
2021/11/14 06:48:48;;;;;;;0.10;0.10;;;;;;;;;;4180509;28;20067;-34
2021/11/14 06:50:49;;;;;;;0.10;0.10;;;;;;;;;;4180577;28;20328;-31
2021/11/14 06:52:51;;;;;;;0.08;0.08;;;;;;;;;;4179922;28;20064;-32
2021/11/14 06:54:52;;;;;;;0.20;0.20;;;;;;;;;;4180351;28;20455;-33
2021/11/14 06:56:53;;;;;;;0.10;0.10;;;;;;;;;;4180259;28;20064;-34
2021/11/14 06:58:55;;;;;;;0.10;0.10;;;;;;;;;;4180421;28;20155;-32
2021/11/14 07:00:56;;;;;;;0.10;0.10;;;;;;;;;;4180377;28;20067;-34
2021/11/14 07:02:57;;;;;;;0.10;0.10;;;;;;;;;;4180233;28;20386;-31
2021/11/14 07:04:58;;;;;;;0.10;0.10;;;;;;;;;;4179829;28;20052;-32
2021/11/14 07:06:59;;;;;;;0.10;0.10;;;;;;;;;;4179745;28;20053;-35
2021/11/14 07:09:00;;;;;;;0.10;0.10;;;;;;;;;;4179696;28;20103;-32
2021/11/14 07:11:02;;;;;;;0.10;0.10;;;;;;;;;;4179944;28;20119;-32
2021/11/14 07:13:03;;;;;;;0.35;0.20;;;;;;;;;;4179645;28;20563;-32
2021/11/14 07:15:06;;;;;;;0.17;0.10;;;;;;;;;;4180409;28;20057;-33
2021/11/14 07:17:07;;;;;;;0.05;0.05;;;;;;;;;;4180205;28;20057;-31
2021/11/14 07:19:08;;;;;;;0.08;0.08;;;;;;;;;;4180180;28;20057;-35
2021/11/14 07:21:09;;;;;;;0.20;0.10;;;;;;;;;;4180108;28;20102;-32
2021/11/14 07:23:10;;;;;;;0.10;0.10;;;;;;;;;;4163007;28;20049;-32
2021/11/14 07:25:18;;;;;;;0.00;0.00;;;;;;;;;;4183598;28;20053;-32
2021/11/14 07:27:20;;;;;;;0.10;0.10;;;;;;;;;;4183440;28;20493;-31
2021/11/14 07:29:21;;;;;;;0.10;0.10;;;;;;;;;;4183580;28;20064;-34
2021/11/14 07:31:23;;;;;;;0.10;0.10;;;;;;;;;;4183602;28;20052;-32
2021/11/14 07:33:24;;;;;;;0.00;0.00;;;;;;;;;;4165754;28;20096;-34
2021/11/14 07:35:26;;;;;;;0.03;0.03;;;;;;;;;;4183422;28;20489;-32
2021/11/14 07:37:27;;;;;;;0.10;0.10;;;;;;;;;;4183571;28;20057;-31
2021/11/14 07:39:28;;;;;;;0.10;0.10;;;;;;;;;;4182824;28;20060;-31
2021/11/14 07:41:29;;;;;;;0.10;0.10;;;;;;;;;;4165898;28;20069;-36
2021/11/14 07:43:30;;;;;;;0.17;0.10;;;;;;;;;;4183256;28;20404;-35
2021/11/14 07:45:32;;;;;;;0.13;0.10;;;;;;;;;;4183376;28;20057;-32
2021/11/14 07:47:33;;;;;;;0.00;0.00;;;;;;;;;;4182153;28;20057;-32
2021/11/14 07:49:34;;;;;;;0.10;0.05;;;;;;;;;;4183164;28;20064;-35
2021/11/14 07:51:35;;;;;;;0.25;0.10;;;;;;;;;;4165704;28;20061;-31
2021/11/14 07:53:37;;;;;;;0.20;0.20;;;;;;;;;;4182783;28;20453;-35
2021/11/14 07:55:38;;;;;;;0.10;0.10;;;;;;;;;;4183421;28;20099;-33
2021/11/14 07:57:44;;;;;;;0.10;0.10;;;;;;;;;;4183025;28;20053;-34
2021/11/14 07:59:45;;;;;;;0.00;0.00;;;;;;;;;;4182205;28;20099;-33
2021/11/14 08:01:46;;;;;;;0.20;0.15;;;;;;;;;;4183091;28;20130;-33
2021/11/14 08:03:47;;;;;;;0.13;0.13;;;;;;;;;;4183132;28;20053;-32
2021/11/14 08:05:49;;;;;;;0.10;0.10;;;;;;;;;;4183071;28;20099;-35
2021/11/14 08:07:50;;;;;;;0.10;0.10;;;;;;;;;;4182317;28;20061;-33
2021/11/14 08:09:51;;;;;;;0.13;0.10;;;;;;;;;;4183323;28;20061;-33
2021/11/14 08:11:52;;;;;;;0.15;0.10;;;;;;;;;;4182878;28;20477;-32
2021/11/14 08:13:53;;;;;;;0.13;0.10;;;;;;;;;;4182983;28;20049;-31
2021/11/14 08:15:54;;;;;;;0.13;0.10;;;;;;;;;;4182893;28;20362;-32
2021/11/14 08:17:55;;;;;;;0.17;0.10;;;;;;;;;;4182881;28;20053;-32
2021/11/14 08:20:00;;;;;;;0.00;0.00;;;;;;;;;;4182638;28;20060;-33
2021/11/14 08:22:01;;;;;;;0.10;0.10;;;;;;;;;;4182711;28;20118;-33
2021/11/14 08:24:02;;;;;;;0.00;0.00;;;;;;;;;;4182479;28;20114;-33
2021/11/14 08:26:03;;;;;;;0.10;0.10;;;;;;;;;;4182608;28;20060;-36
2021/11/14 08:28:04;;;;;;;0.10;0.10;;;;;;;;;;4182464;28;20485;-33
2021/11/14 08:30:09;;;;;;;0.10;0.10;;;;;;;;;;4182485;28;20103;-32
2021/11/14 08:32:10;;;;;;;0.15;0.10;;;;;;;;;;4182823;28;20057;-32
2021/11/14 08:34:11;;;;;;;0.10;0.10;;;;;;;;;;4181857;28;20060;-34
2021/11/14 08:36:12;;;;;;;0.13;0.08;;;;;;;;;;4181672;28;20052;-33
2021/11/14 08:38:14;;;;;;;0.10;0.10;;;;;;;;;;4181988;28;20118;-37
2021/11/14 08:40:15;;;;;;;0.00;0.00;;;;;;;;;;4182785;28;20053;-31
2021/11/14 08:42:17;;;;;;;0.00;0.00;;;;;;;;;;4182441;28;20056;-34
2021/11/14 08:44:18;;;;;;;0.00;0.00;;;;;;;;;;4182603;28;20053;-33
2021/11/14 08:46:19;;;;;;;0.10;0.10;;;;;;;;;;4182359;28;20052;-34
2021/11/14 08:48:20;;;;;;;0.10;0.10;;;;;;;;;;4182221;28;20110;-31
2021/11/14 08:50:22;;;;;;;0.10;0.10;;;;;;;;;;4182256;28;20567;-31
2021/11/14 08:52:23;;;;;;;0.08;0.05;;;;;;;;;;4182736;28;20060;-33
2021/11/14 08:54:25;;;;;;;0.00;0.00;;;;;;;;;;4181957;28;20092;-31
2021/11/14 08:56:30;;;;;;;0.10;0.10;;;;;;;;;;4182239;28;20058;-31
2021/11/14 08:58:34;;;;;;;0.10;0.10;;;;;;;;;;4180922;28;20049;-31
2021/11/14 09:00:35;;;;;;;0.10;0.00;;;;;;;;;;4182456;28;20056;-33
2021/11/14 09:02:36;;;;;;;0.22;0.10;;;;;;;;;;4181987;28;20057;-32
2021/11/14 09:04:37;;;;;;;0.10;0.10;;;;;;;;;;4182075;28;20492;-31
2021/11/14 09:06:39;;;;;;;0.10;0.10;;;;;;;;;;4181948;28;20057;-31
2021/11/14 09:08:40;;;;;;;0.00;0.00;;;;;;;;;;4181685;28;20493;-31
2021/11/14 09:10:44;;;;;;;0.10;0.10;;;;;;;;;;4182204;28;20061;-33
2021/11/14 09:12:45;;;;;;;0.20;0.20;;;;;;;;;;4181840;28;20061;-32
2021/11/14 09:14:46;;;;;;;0.10;0.10;;;;;;;;;;4181895;28;20448;-31
2021/11/14 09:16:51;;;;;;;0.10;0.10;;;;;;;;;;4164532;28;20099;-31
2021/11/14 09:18:52;;;;;;;0.20;0.10;;;;;;;;;;4164522;28;20053;-31
2021/11/14 09:20:53;;;;;;;0.10;0.10;;;;;;;;;;4181569;28;20505;-31
2021/11/14 09:22:54;;;;;;;0.20;0.10;;;;;;;;;;4163671;28;20057;-31
2021/11/14 09:24:55;;;;;;;0.10;0.10;;;;;;;;;;4182011;28;20373;-33
2021/11/14 09:26:56;;;;;;;0.13;0.10;;;;;;;;;;4182059;28;20048;-31
2021/11/14 09:28:58;;;;;;;0.00;0.00;;;;;;;;;;4181668;28;20489;-32
2021/11/14 09:30:59;;;;;;;0.10;0.10;;;;;;;;;;4181596;28;20489;-31
2021/11/14 09:33:01;;;;;;;0.03;0.03;;;;;;;;;;4181853;28;20057;-31
2021/11/14 09:35:03;;;;;;;0.10;0.10;;;;;;;;;;4181890;28;20112;-33
2021/11/14 09:37:04;;;;;;;0.25;0.10;;;;;;;;;;4181523;28;20111;-31
2021/11/14 09:39:09;;;;;;;0.10;0.10;;;;;;;;;;4181072;28;20049;-32
2021/11/14 09:41:10;;;;;;;0.08;0.08;;;;;;;;;;4181734;28;20056;-31
2021/11/14 09:43:13;;;;;;;0.10;0.10;;;;;;;;;;4181549;28;20558;-31
2021/11/14 09:45:14;;;;;;;0.00;0.00;;;;;;;;;;4164252;28;20065;-31
2021/11/14 09:47:15;;;;;;;0.08;0.08;;;;;;;;;;4180814;28;20064;-31
2021/11/14 09:49:19;;;;;;;0.10;0.10;;;;;;;;;;4181248;28;20452;-32
2021/11/14 09:51:20;;;;;;;0.00;0.00;;;;;;;;;;4181790;28;20060;-31
2021/11/14 09:53:30;;;;;;;0.10;0.10;;;;;;;;;;4180870;28;20497;-32
2021/11/14 09:55:36;;;;;;;0.32;0.10;;;;;;;;;;4181306;28;20110;-31
2021/11/14 09:57:38;;;;;;;0.22;0.10;;;;;;;;;;4181030;28;20053;-31
2021/11/14 09:59:39;;;;;;;0.10;0.00;;;;;;;;;;4181328;28;20357;-31
2021/11/14 10:01:41;;;;;;;0.00;0.00;;;;;;;;;;4181639;28;20103;-32
2021/11/14 10:03:44;;;;;;;0.20;0.10;;;;;;;;;;4181318;28;20053;-32
2021/11/14 10:05:48;;;;;;;0.40;0.20;;;;;;;;;;4181145;28;20048;-31
2021/11/14 10:08:02;;;;;;;0.10;0.10;;;;;;;;;;4180411;28;20785;-31
2021/11/14 10:10:07;;;;;;;0.10;0.10;;;;;;;;;;4181521;28;20122;-37
2021/11/14 10:12:30;;;;;;;0.08;0.05;;;;;;;;;;4180985;28;20068;-32
2021/11/14 10:14:31;;;;;;;0.20;0.17;;;;;;;;;;4181050;28;20488;-31
2021/11/14 10:16:35;;;;;;;0.00;0.00;;;;;;;;;;4181127;28;20114;-31
2021/11/14 10:18:37;;;;;;;0.00;0.00;;;;;;;;;;4181017;28;20053;-34
2021/11/14 10:20:39;;;;;;;0.10;0.10;;;;;;;;;;4180778;28;20060;-35
2021/11/14 10:22:43;;;;;;;0.10;0.10;;;;;;;;;;4180232;28;20056;-37
2021/11/14 10:24:44;;;;;;;0.10;0.08;;;;;;;;;;4181048;28;20077;-37
2021/11/14 10:26:46;;;;;;;0.00;0.00;;;;;;;;;;4163417;28;20050;-36
2021/11/14 10:28:48;;;;;;;0.10;0.10;;;;;;;;;;4180746;28;20056;-35
2021/11/14 10:30:49;;;;;;;0.10;0.10;;;;;;;;;;4180790;28;20106;-36
2021/11/14 10:32:56;;;;;;;0.10;0.10;;;;;;;;;;4163203;28;20148;-32
2021/11/14 10:35:07;;;;;;;0.20;0.10;;;;;;;;;;4180889;28;20057;-31
2021/11/14 10:37:08;;;;;;;0.08;0.08;;;;;;;;;;4180874;28;20056;-32
2021/11/14 10:39:11;;;;;;;0.10;0.10;;;;;;;;;;4180176;28;20122;-31
2021/11/14 10:41:14;;;;;;;0.10;0.10;;;;;;;;;;4180671;28;20485;-34
2021/11/14 10:43:18;;;;;;;0.00;0.00;;;;;;;;;;4180618;28;20493;-34
2021/11/14 10:45:20;;;;;;;0.00;0.00;;;;;;;;;;4180612;28;20049;-32
2021/11/14 10:47:23;;;;;;;0.10;0.10;;;;;;;;;;4180419;28;20347;-33
2021/11/14 10:49:24;;;;;;;0.20;0.00;;;;;;;;;;4180454;28;20414;-36
2021/11/14 10:51:27;;;;;;;0.17;0.10;;;;;;;;;;4180613;28;20053;-34
2021/11/14 10:53:33;;;;;;;0.00;0.00;;;;;;;;;;4180059;28;20079;-32
2021/11/14 10:55:40;;;;;;;0.10;0.10;;;;;;;;;;4180830;28;20118;-35
2021/11/14 10:57:41;;;;;;;0.10;0.10;;;;;;;;;;4179265;28;20056;-34
2021/11/14 10:59:49;;;;;;;0.10;0.10;;;;;;;;;;4162131;28;20061;-33
2021/11/14 11:01:52;;;;;;;0.17;0.17;;;;;;;;;;4192361;28;20408;-34
2021/11/14 11:03:53;;;;;;;0.25;0.00;;;;;;;;;;4180807;28;20057;-34
2021/11/14 11:05:55;;;;;;;0.08;0.08;;;;;;;;;;4180581;28;20057;-32
2021/11/14 11:08:02;;;;;;;0.00;0.00;;;;;;;;;;4179863;28;20064;-32
2021/11/14 11:10:04;;;;;;;0.10;0.10;;;;;;;;;;4180575;28;20060;-33
2021/11/14 11:12:35;;;;;;;0.10;0.10;;;;;;;;;;4180485;28;20412;-31
2021/11/14 11:14:36;;;;;;;0.10;0.10;;;;;;;;;;4163708;28;20131;-31
2021/11/14 11:16:37;;;;;;;0.15;0.10;;;;;;;;;;4180312;28;20057;-32
2021/11/14 11:18:41;;;;;;;0.10;0.10;;;;;;;;;;4180322;28;20053;-35
2021/11/14 11:20:44;;;;;;;0.08;0.08;;;;;;;;;;4180362;28;20057;-34
2021/11/14 11:22:48;;;;;;;0.10;0.10;;;;;;;;;;4162126;28;20057;-31
2021/11/14 11:24:51;;;;;;;0.20;0.20;;;;;;;;;;4180318;28;20064;-31
2021/11/14 11:27:00;;;;;;;0.15;0.10;;;;;;;;;;4180483;28;20111;-32
2021/11/14 11:29:13;;;;;;;0.20;0.10;;;;;;;;;;4180200;28;20547;-34
2021/11/14 11:31:15;;;;;;;0.00;0.00;;;;;;;;;;4180214;28;20065;-36
2021/11/14 11:33:17;;;;;;;0.10;0.10;;;;;;;;;;4180039;28;20438;-31
2021/11/14 11:35:19;;;;;;;0.10;0.10;;;;;;;;;;4180384;28;20056;-31
2021/11/14 11:37:21;;;;;;;0.20;0.20;;;;;;;;;;4180087;28;20505;-32
2021/11/14 11:39:22;;;;;;;0.03;0.03;;;;;;;;;;4162152;28;20054;-33
2021/11/14 11:41:27;;;;;;;0.10;0.10;;;;;;;;;;4180131;28;20354;-32
2021/11/14 11:43:29;;;;;;;0.10;0.10;;;;;;;;;;4180294;28;20103;-31
2021/11/14 11:45:37;;;;;;;0.00;0.00;;;;;;;;;;4178945;28;20053;-31
2021/11/14 11:47:40;;;;;;;0.00;0.00;;;;;;;;;;4179998;28;20053;-32
2021/11/14 11:49:44;;;;;;;0.05;0.05;;;;;;;;;;4180039;28;20061;-31
2021/11/14 11:51:51;;;;;;;0.10;0.10;;;;;;;;;;4162753;28;20049;-31
2021/11/14 11:53:57;;;;;;;0.00;0.00;;;;;;;;;;4161922;28;20433;-32
2021/11/14 11:56:02;;;;;;;0.10;0.10;;;;;;;;;;4180092;28;20130;-33
2021/11/14 11:58:12;;;;;;;0.08;0.05;;;;;;;;;;4179805;28;20394;-37
2021/11/14 12:00:15;;;;;;;0.05;0.05;;;;;;;;;;4180144;28;20057;-35
2021/11/14 12:02:29;;;;;;;0.00;0.00;;;;;;;;;;4180314;28;20167;-34
2021/11/14 12:04:36;;;;;;;0.10;0.10;;;;;;;;;;4180384;28;20053;-34
2021/11/14 12:06:45;;;;;;;0.30;0.10;;;;;;;;;;4180380;28;20057;-33
2021/11/14 12:08:49;;;;;;;0.10;0.10;;;;;;;;;;4179723;28;20504;-33
2021/11/14 12:10:57;;;;;;;0.10;0.00;;;;;;;;;;4181927;28;20057;-32
2021/11/14 12:13:04;;;;;;;0.30;0.10;;;;;;;;;;4181920;28;20053;-35
2021/11/14 12:15:17;;;;;;;0.10;0.10;;;;;;;;;;4165356;28;20057;-33
2021/11/14 12:17:24;;;;;;;0.10;0.10;;;;;;;;;;4182988;28;20119;-33